Time;durP1;ratioP1;P1;durP2;ratioP2;P2;SDS_P1;SDS_P2;PMS_P1;PMS_P2;Temp;Humidity;BMP_temperature;BMP_pressure;BME280_temperature;BME280_humidity;BME280_pressure;Samples;Min_cycle;Max_cycle;Signal;HPM_P1;HPM_P2
2021/11/17 02:25:41;;;;;;;7.2;4.9;;;;;;;6.01;88.91602;939.6587;;;;
2021/11/17 02:28:06;;;;;;;6.2;4.7;;;;;;;5.88;90.00586;939.6542;;;;
2021/11/17 02:30:31;;;;;;;6.2;4.4;;;;;;;5.99;89.90625;939.7092;;;;
2021/11/17 02:32:56;;;;;;;6;4.3;;;;;;;6.06;89.58301;939.8222;;;;
2021/11/17 02:35:23;;;;;;;6.5;4.5;;;;;;;6.04;89.30566;939.8293;;;;
2021/11/17 02:37:48;;;;;;;6.5;4.4;;;;;;;6.03;89.49609;939.8386;;;;
2021/11/17 02:40:17;;;;;;;6.4;4.4;;;;;;;6;89.84082;939.8817;;;;
2021/11/17 02:42:45;;;;;;;7.4;3.9;;;;;;;6.02;89.69727;939.8968;;;;
2021/11/17 02:45:15;;;;;;;6;4.2;;;;;;;6.09;88.9668;939.8442;;;;
2021/11/17 02:47:42;;;;;;;5.6;3.5;;;;;;;6.03;89.02344;939.8356;;;;
2021/11/17 02:50:11;;;;;;;5.6;3.6;;;;;;;5.97;89.62988;939.8309;;;;
2021/11/17 02:52:37;;;;;;;5.1;3.8;;;;;;;5.97;89.59766;939.8033;;;;
2021/11/17 02:55:02;;;;;;;4.9;3.3;;;;;;;5.96;89.52637;939.8047;;;;
2021/11/17 02:57:28;;;;;;;4.5;3.5;;;;;;;6.01;89.20996;939.8752;;;;
2021/11/17 02:59:54;;;;;;;4.2;3.1;;;;;;;5.98;88.67285;939.8622;;;;
2021/11/17 03:02:19;;;;;;;4.7;3.3;;;;;;;5.96;88.96289;939.8806;;;;
2021/11/17 03:04:46;;;;;;;4.1;3.2;;;;;;;5.98;88.71875;939.8946;;;;
2021/11/17 03:07:14;;;;;;;4.6;3.6;;;;;;;5.97;89.13281;939.8799;;;;
2021/11/17 03:09:39;;;;;;;5.3;3.8;;;;;;;6.04;88.83105;939.9124;;;;
2021/11/17 03:12:04;;;;;;;5.2;3.8;;;;;;;5.99;88.73145;939.9099;;;;
2021/11/17 03:14:29;;;;;;;6.2;4;;;;;;;5.98;89.16992;939.9001;;;;
2021/11/17 03:17:57;;;;;;;5.5;3.9;;;;;;;5.93;89.75781;939.943;;;;
2021/11/17 03:20:22;;;;;;;7;4.6;;;;;;;5.93;89.66699;939.9003;;;;
2021/11/17 03:22:47;;;;;;;6.6;4.4;;;;;;;5.94;89.45703;939.8879;;;;
2021/11/17 03:25:20;;;;;;;7.5;4.5;;;;;;;5.84;90.2832;939.9188;;;;
2021/11/17 03:27:45;;;;;;;6.6;4.4;;;;;;;5.93;90.48047;939.9146;;;;
2021/11/17 03:30:12;;;;;;;5.2;4.4;;;;;;;5.97;90.30957;939.8967;;;;
2021/11/17 03:32:37;;;;;;;6.8;4.4;;;;;;;5.97;90.18555;939.9363;;;;
2021/11/17 03:35:02;;;;;;;6.4;4.5;;;;;;;6.02;89.50781;940.0162;;;;
2021/11/17 03:37:27;;;;;;;7.2;4.6;;;;;;;6;89.72754;940.0295;;;;
2021/11/17 03:39:53;;;;;;;6.2;4.2;;;;;;;5.93;90.2666;940.0535;;;;
2021/11/17 03:42:20;;;;;;;4.9;3.4;;;;;;;6.08;90.10449;940.0725;;;;
2021/11/17 03:44:45;;;;;;;4.7;3.6;;;;;;;6.1;89.59082;940.1364;;;;
2021/11/17 03:48:02;;;;;;;5.1;4;;;;;;;6.06;89.97852;940.0711;;;;
2021/11/17 03:50:30;;;;;;;4.3;3.5;;;;;;;6.09;90.08789;940.0966;;;;
2021/11/17 03:52:55;;;;;;;4.5;3.2;;;;;;;6.17;89.36816;940.0948;;;;
2021/11/17 03:55:21;;;;;;;6.3;4.1;;;;;;;6.11;89.43359;940.1414;;;;
2021/11/17 03:57:46;;;;;;;4.4;3.3;;;;;;;6.03;89.82617;940.0964;;;;
2021/11/17 04:02:31;;;;;;;5.2;3.6;;;;;;;6.02;89.85742;940.1404;;;;
2021/11/17 04:04:56;;;;;;;4.6;3.7;;;;;;;6.02;90.18359;940.084;;;;
2021/11/17 04:07:21;;;;;;;4.7;3.4;;;;;;;6.07;89.77637;940.0635;;;;
2021/11/17 04:09:49;;;;;;;6;4;;;;;;;6.03;89.91406;940.0829;;;;
2021/11/17 04:12:14;;;;;;;5.9;3.9;;;;;;;6.04;89.67871;940.0444;;;;
2021/11/17 04:14:39;;;;;;;5.2;3.6;;;;;;;6.18;88.62402;940.0391;;;;
2021/11/17 04:17:19;;;;;;;4.5;3.6;;;;;;;6.16;87.83887;939.9775;;;;
2021/11/17 04:19:43;;;;;;;5.4;3.7;;;;;;;6;89.45703;940.0137;;;;
2021/11/17 04:22:08;;;;;;;4.7;3.8;;;;;;;6.04;89.46387;940.0745;;;;
2021/11/17 04:24:33;;;;;;;4.9;3.5;;;;;;;6.09;89.37402;940.0513;;;;
2021/11/17 04:26:58;;;;;;;4.7;3.5;;;;;;;6.09;88.80859;939.9905;;;;
2021/11/17 04:29:25;;;;;;;5;3.9;;;;;;;5.97;88.88574;939.9615;;;;
2021/11/17 04:31:51;;;;;;;5.6;3.7;;;;;;;5.98;88.96484;939.9475;;;;
2021/11/17 04:34:16;;;;;;;4.9;3.3;;;;;;;6.04;89.11426;939.9803;;;;
2021/11/17 04:36:44;;;;;;;5;3.5;;;;;;;5.86;89.97949;940.0061;;;;
2021/11/17 04:39:09;;;;;;;5.4;3.9;;;;;;;5.86;90.42188;939.9984;;;;
2021/11/17 04:41:35;;;;;;;4.1;3.3;;;;;;;5.8;90.81348;940.0687;;;;
2021/11/17 04:44:01;;;;;;;5.2;3.4;;;;;;;5.79;91.29883;940.0694;;;;
2021/11/17 04:46:26;;;;;;;5.6;3.5;;;;;;;5.91;90.94238;940.0366;;;;
2021/11/17 04:48:51;;;;;;;5.6;4.1;;;;;;;5.96;90.85938;940.1588;;;;
2021/11/17 04:51:16;;;;;;;6.1;3.9;;;;;;;5.98;90.70703;940.1665;;;;
2021/11/17 04:53:41;;;;;;;5.4;3.5;;;;;;;5.98;90.76367;940.1412;;;;
2021/11/17 04:56:08;;;;;;;5.9;3.5;;;;;;;5.98;91.08887;940.153;;;;
2021/11/17 04:58:33;;;;;;;5.2;3.6;;;;;;;6.07;90.3418;940.0421;;;;
2021/11/17 05:00:58;;;;;;;5.1;3.6;;;;;;;6.03;90.53613;940.1256;;;;
2021/11/17 05:03:23;;;;;;;4.4;3.7;;;;;;;5.98;90.71777;940.0733;;;;
2021/11/17 05:06:37;;;;;;;6.9;4;;;;;;;5.9;91.02832;940.1119;;;;
2021/11/17 05:09:06;;;;;;;6.9;4;;;;;;;5.93;91.14941;940.0861;;;;
2021/11/17 05:11:35;;;;;;;6.9;4.2;;;;;;;5.98;90.97754;940.1286;;;;
2021/11/17 05:14:01;;;;;;;6.9;4.7;;;;;;;5.96;90.59961;940.0821;;;;
2021/11/17 05:16:30;;;;;;;6.3;4.2;;;;;;;5.97;90.07227;940.0823;;;;
2021/11/17 05:18:56;;;;;;;7.2;4.4;;;;;;;5.99;90.2793;940.0964;;;;
2021/11/17 05:21:24;;;;;;;6.7;4.5;;;;;;;5.98;90.30957;940.0905;;;;
2021/11/17 05:23:49;;;;;;;5.8;4.3;;;;;;;6.02;90.27539;940.0858;;;;
2021/11/17 05:26:17;;;;;;;6.7;5;;;;;;;5.99;90.31348;940.0744;;;;
2021/11/17 05:28:42;;;;;;;6;4.8;;;;;;;6.07;90.09277;940.0817;;;;
2021/11/17 05:31:07;;;;;;;6.4;4.3;;;;;;;6.18;89.4834;940.0847;;;;
2021/11/17 05:33:32;;;;;;;5.4;4.1;;;;;;;6.09;89.88184;940.1415;;;;
2021/11/17 05:35:57;;;;;;;6;4.1;;;;;;;6.1;89.77148;940.1275;;;;
2021/11/17 05:38:23;;;;;;;5.3;4;;;;;;;6.16;89.46582;940.1483;;;;
2021/11/17 05:40:50;;;;;;;5.2;3.8;;;;;;;6.15;89.37402;940.1834;;;;
2021/11/17 05:43:17;;;;;;;6.1;4;;;;;;;6.05;89.73926;940.1301;;;;
2021/11/17 05:45:42;;;;;;;6.4;4.6;;;;;;;6.09;89.75781;940.0926;;;;
2021/11/17 05:48:08;;;;;;;7.3;4.4;;;;;;;6.06;89.97656;940.1121;;;;
2021/11/17 05:50:32;;;;;;;7.6;5;;;;;;;5.99;90.2666;940.0939;;;;
2021/11/17 05:52:57;;;;;;;8.5;5.4;;;;;;;5.83;91.21484;940.1861;;;;
2021/11/17 05:55:23;;;;;;;9.1;6.1;;;;;;;5.81;91.61914;940.1476;;;;
2021/11/17 05:57:48;;;;;;;8.6;5.4;;;;;;;5.88;91.80371;940.1672;;;;
2021/11/17 06:00:13;;;;;;;8.2;5.6;;;;;;;5.92;91.34863;940.2073;;;;
2021/11/17 06:02:38;;;;;;;8.6;5.6;;;;;;;5.96;91.1416;940.2377;;;;
2021/11/17 06:05:04;;;;;;;8.2;5.5;;;;;;;5.99;90.86719;940.2388;;;;
2021/11/17 06:07:29;;;;;;;10.6;5.3;;;;;;;6.04;90.65039;940.2079;;;;
2021/11/17 06:09:56;;;;;;;8.3;5.5;;;;;;;6.02;90.69238;940.2042;;;;
2021/11/17 06:12:25;;;;;;;8.1;5.5;;;;;;;6.07;90.24023;940.272;;;;
2021/11/17 06:14:50;;;;;;;9.9;5.9;;;;;;;5.98;90.43359;940.2036;;;;
2021/11/17 06:17:15;;;;;;;9.6;5.8;;;;;;;5.94;90.83301;940.2941;;;;
2021/11/17 06:19:40;;;;;;;8.8;5.9;;;;;;;6.03;90.82031;940.2877;;;;
2021/11/17 06:22:05;;;;;;;9.4;6.4;;;;;;;6.02;90.84961;940.2595;;;;
2021/11/17 06:24:36;;;;;;;10.4;6.4;;;;;;;6;91.07227;940.2737;;;;
2021/11/17 06:27:03;;;;;;;8.6;5.7;;;;;;;6.03;91.1123;940.3152;;;;
2021/11/17 06:29:26;;;;;;;10.8;6.1;;;;;;;5.98;91.29199;940.36;;;;
2021/11/17 06:31:51;;;;;;;9.1;6.1;;;;;;;5.98;91.54297;940.3997;;;;
2021/11/17 06:34:18;;;;;;;10.1;6.1;;;;;;;6.08;91.43945;940.426;;;;
2021/11/17 06:36:44;;;;;;;10.4;6.5;;;;;;;6.07;91.21191;940.427;;;;
2021/11/17 06:39:09;;;;;;;9.7;6.1;;;;;;;6.06;91.20996;940.5296;;;;
2021/11/17 06:41:37;;;;;;;10.8;6.6;;;;;;;6.05;91.35254;940.4977;;;;
2021/11/17 06:44:03;;;;;;;11.2;7.5;;;;;;;6.12;91.39258;940.5305;;;;
2021/11/17 06:46:31;;;;;;;12.7;6.9;;;;;;;6.09;91.49805;940.4979;;;;
2021/11/17 06:48:56;;;;;;;10.7;6.6;;;;;;;6.12;91.01855;940.5566;;;;
2021/11/17 06:51:24;;;;;;;10.3;6.6;;;;;;;6.13;91.00879;940.5302;;;;
2021/11/17 06:53:50;;;;;;;9.4;6.6;;;;;;;6.13;91.05371;940.6052;;;;
2021/11/17 06:56:17;;;;;;;11.3;6.7;;;;;;;6.15;90.87891;940.6247;;;;
2021/11/17 06:58:40;;;;;;;11.5;7.4;;;;;;;6.18;90.89551;940.6808;;;;
2021/11/17 07:01:09;;;;;;;11.4;7.1;;;;;;;6.19;90.94531;940.7185;;;;
2021/11/17 07:03:37;;;;;;;12.3;7.7;;;;;;;6.12;90.95215;940.7386;;;;
2021/11/17 07:06:02;;;;;;;10.9;6.8;;;;;;;6.15;90.97852;940.808;;;;
2021/11/17 07:08:29;;;;;;;11.8;7.2;;;;;;;6.18;91.14453;940.8201;;;;
2021/11/17 07:10:55;;;;;;;12.2;7.2;;;;;;;6.2;90.87695;940.8222;;;;
2021/11/17 07:13:20;;;;;;;12.6;8;;;;;;;6.14;90.59277;940.875;;;;
2021/11/17 07:16:06;;;;;;;11.4;7.7;;;;;;;6.03;91.34961;940.8636;;;;
2021/11/17 07:18:32;;;;;;;10.3;7.6;;;;;;;6.1;91.41016;940.9448;;;;
2021/11/17 07:20:57;;;;;;;12.7;7.8;;;;;;;6.17;91.15625;940.9203;;;;
2021/11/17 07:26:17;;;;;;;11.7;7.7;;;;;;;6.28;90.14844;940.8574;;;;
2021/11/17 07:28:42;;;;;;;11.2;7.3;;;;;;;6.25;90.04102;940.8787;;;;
2021/11/17 07:31:10;;;;;;;11.4;7.1;;;;;;;6.17;90.51172;940.9503;;;;
2021/11/17 07:33:44;;;;;;;11.2;7.3;;;;;;;6.12;90.70215;940.9684;;;;
2021/11/17 07:36:01;;;;;;;9.2;6.7;;;;;;;6.31;90.56055;940.9952;;;;
2021/11/17 07:38:26;;;;;;;12.4;8;;;;;;;6.43;89.55859;941.0408;;;;
2021/11/17 07:40:53;;;;;;;11.7;7.5;;;;;;;6.41;88.89648;941.0561;;;;
2021/11/17 07:43:18;;;;;;;10.4;7.2;;;;;;;6.38;88.82324;941.0278;;;;
2021/11/17 07:45:44;;;;;;;11.2;7.9;;;;;;;6.45;88.78223;941.084;;;;
2021/11/17 07:48:09;;;;;;;11.6;7.4;;;;;;;6.45;88.90625;941.149;;;;
2021/11/17 07:50:35;;;;;;;10.9;7.3;;;;;;;6.56;88.34082;941.1412;;;;
2021/11/17 07:53:01;;;;;;;11.3;7.5;;;;;;;6.56;88.72559;941.1191;;;;
2021/11/17 07:55:28;;;;;;;12.7;7.4;;;;;;;6.69;87.71191;941.127;;;;
2021/11/17 07:57:53;;;;;;;10.8;6.8;;;;;;;6.65;87.74805;941.0744;;;;
2021/11/17 08:00:20;;;;;;;10.6;7.4;;;;;;;6.42;88.11816;941.2097;;;;
2021/11/17 08:02:45;;;;;;;12.9;8;;;;;;;6.41;89.9375;941.0955;;;;
2021/11/17 08:05:11;;;;;;;10.2;6.9;;;;;;;6.66;89.08496;941.1664;;;;
2021/11/17 08:07:38;;;;;;;10.9;6.9;;;;;;;6.65;88.05176;941.1613;;;;
2021/11/17 08:10:04;;;;;;;10.7;7.2;;;;;;;6.78;87.5498;941.1531;;;;
2021/11/17 08:12:29;;;;;;;10.4;6.5;;;;;;;6.79;87.65137;941.1646;;;;
2021/11/17 08:14:57;;;;;;;11.1;7;;;;;;;6.74;87.4502;941.1766;;;;
2021/11/17 08:17:22;;;;;;;10.2;7.3;;;;;;;6.66;87.12793;941.1594;;;;
2021/11/17 08:19:50;;;;;;;10.9;7.9;;;;;;;6.62;88.16113;941.1456;;;;
2021/11/17 08:22:16;;;;;;;19.7;12.2;;;;;;;6.66;87.80664;941.1805;;;;
2021/11/17 08:24:49;;;;;;;11.8;7.9;;;;;;;6.78;87.82129;941.2458;;;;
2021/11/17 08:27:18;;;;;;;8.9;6.7;;;;;;;6.56;87.9668;941.3317;;;;
2021/11/17 08:29:39;;;;;;;9.7;6.2;;;;;;;6.84;87.54883;941.3617;;;;
2021/11/17 08:32:04;;;;;;;9.1;6.1;;;;;;;6.91;86.77148;941.4191;;;;
2021/11/17 08:34:31;;;;;;;9;6.1;;;;;;;6.96;86.31641;941.4536;;;;
2021/11/17 08:36:56;;;;;;;8.1;5.3;;;;;;;7.09;85.96973;941.4958;;;;
2021/11/17 08:39:21;;;;;;;7.4;5.1;;;;;;;7.2;84.38281;941.4907;;;;
2021/11/17 08:41:46;;;;;;;6.8;5.1;;;;;;;7.05;84.14844;941.5564;;;;
2021/11/17 08:44:11;;;;;;;8.2;5.5;;;;;;;7.14;84.61035;941.5453;;;;
2021/11/17 08:46:37;;;;;;;8.8;5.9;;;;;;;7.28;83.37891;941.6192;;;;
2021/11/17 08:49:03;;;;;;;7.8;5.2;;;;;;;7.34;83.16309;941.65;;;;
2021/11/17 08:51:32;;;;;;;7.3;5.3;;;;;;;7.47;82.41797;941.653;;;;
2021/11/17 08:53:55;;;;;;;8.4;5.8;;;;;;;7.48;82.61035;941.6525;;;;
2021/11/17 08:56:22;;;;;;;8;5.7;;;;;;;7.5;82.44629;941.611;;;;
2021/11/17 08:58:47;;;;;;;8.6;5.6;;;;;;;7.68;82.12891;941.6808;;;;
2021/11/17 09:01:13;;;;;;;7.5;5.6;;;;;;;7.82;82.14551;941.6578;;;;
2021/11/17 09:03:39;;;;;;;7.4;5.3;;;;;;;7.77;82.75879;941.7053;;;;
2021/11/17 09:06:05;;;;;;;7.6;4.3;;;;;;;7.73;81.81055;941.6354;;;;
2021/11/17 09:08:30;;;;;;;4.9;4.1;;;;;;;7.46;81.42969;941.7202;;;;
2021/11/17 09:10:59;;;;;;;6.2;4.5;;;;;;;7.59;81.88477;941.7654;;;;
2021/11/17 09:13:24;;;;;;;6.3;4.7;;;;;;;7.57;82.13281;941.7714;;;;
2021/11/17 09:15:53;;;;;;;5.3;3.9;;;;;;;7.6;81.00391;941.7436;;;;
2021/11/17 09:18:18;;;;;;;5.5;4.1;;;;;;;7.73;82.25293;941.7639;;;;
2021/11/17 09:20:45;;;;;;;6.3;4.4;;;;;;;7.78;81.45605;941.8119;;;;
2021/11/17 09:23:10;;;;;;;7;4.6;;;;;;;7.78;81.05859;941.8365;;;;
2021/11/17 09:25:40;;;;;;;5.6;3.8;;;;;;;7.75;81.40527;941.8753;;;;
2021/11/17 09:28:05;;;;;;;6;3.3;;;;;;;8.11;79.30371;941.9554;;;;
2021/11/17 09:30:34;;;;;;;5.8;3.6;;;;;;;7.92;80.06445;941.9426;;;;
2021/11/17 09:32:58;;;;;;;5.7;3.6;;;;;;;7.79;80.74316;942.0055;;;;
2021/11/17 09:35:28;;;;;;;4.2;3.1;;;;;;;8.02;78.3916;941.9628;;;;
2021/11/17 09:37:52;;;;;;;3.7;2.9;;;;;;;8.25;78.97852;941.9963;;;;
2021/11/17 09:40:20;;;;;;;4.8;2.4;;;;;;;8.4;76.69824;941.9423;;;;
2021/11/17 09:42:45;;;;;;;4.4;3;;;;;;;8.36;76.7373;942.012;;;;
2021/11/17 09:45:16;;;;;;;5.5;2.9;;;;;;;8.4;77.09766;942.0566;;;;
2021/11/17 09:47:42;;;;;;;4.2;3.1;;;;;;;8.36;77.64648;941.9897;;;;
2021/11/17 09:50:07;;;;;;;4.4;3.5;;;;;;;8.46;75.47266;942.0394;;;;
2021/11/17 09:52:31;;;;;;;5.1;3.4;;;;;;;8.46;75.36914;942.0511;;;;
2021/11/17 09:54:56;;;;;;;4.8;3.6;;;;;;;8.49;76.13672;942.0725;;;;
2021/11/17 09:57:22;;;;;;;3.9;3.3;;;;;;;8.43;75.9668;942.1291;;;;
2021/11/17 09:59:47;;;;;;;5.2;3.8;;;;;;;8.2;77.19629;942.1423;;;;
2021/11/17 10:58:45;;;;;;;9.8;6.4;;;;;;;7.68;82.76465;941.997;;;;
2021/11/17 11:01:13;;;;;;;8.4;5.5;;;;;;;7.84;81.13672;942.0055;;;;
2021/11/17 11:03:36;;;;;;;7.7;5.4;;;;;;;8.01;80.79688;941.9681;;;;
2021/11/17 11:06:01;;;;;;;8.1;5.2;;;;;;;8.02;80.49023;941.9484;;;;
2021/11/17 11:08:26;;;;;;;7.1;5.3;;;;;;;8.17;80.15527;941.9568;;;;
2021/11/17 11:10:51;;;;;;;6.5;4.8;;;;;;;8.27;79.56055;941.9097;;;;
2021/11/17 11:13:19;;;;;;;5.6;4.4;;;;;;;8.28;79.36914;941.8851;;;;
2021/11/17 11:15:51;;;;;;;7;4.5;;;;;;;8.52;78.8916;941.8359;;;;
2021/11/17 11:18:19;;;;;;;5.7;4.5;;;;;;;8.8;76.62305;941.8653;;;;
2021/11/17 11:20:46;;;;;;;6.2;4.6;;;;;;;9.03;76.12891;941.793;;;;
2021/11/17 11:23:15;;;;;;;6.9;4.4;;;;;;;8.88;75.18164;941.7966;;;;
2021/11/17 11:25:39;;;;;;;6.8;4.8;;;;;;;9.04;76.0957;941.817;;;;
2021/11/17 11:28:11;;;;;;;7.7;4.6;;;;;;;9.18;75.5752;941.8311;;;;
2021/11/17 11:30:39;;;;;;;7.2;4.7;;;;;;;9.37;74.50195;941.8287;;;;
2021/11/17 11:33:04;;;;;;;6;4;;;;;;;9.38;74.21094;941.8727;;;;
2021/11/17 11:35:30;;;;;;;5.2;4.1;;;;;;;9.43;74.74219;941.7826;;;;
2021/11/17 11:38:04;;;;;;;6.1;4;;;;;;;9.66;73.17676;941.8278;;;;
2021/11/17 11:40:30;;;;;;;4.9;3.4;;;;;;;9.72;70.70117;941.7827;;;;
2021/11/17 11:43:04;;;;;;;5.2;3.5;;;;;;;9.76;70.73047;941.7086;;;;
2021/11/17 11:45:30;;;;;;;4.7;3.4;;;;;;;10.14;70.23438;941.731;;;;
2021/11/17 11:47:55;;;;;;;3.9;3.5;;;;;;;9.99;71.01953;941.6421;;;;
2021/11/17 11:50:23;;;;;;;4.9;4;;;;;;;10.19;70.4248;941.6139;;;;
2021/11/17 11:53:00;;;;;;;4.9;3.9;;;;;;;10.23;70.08789;941.6295;;;;
2021/11/17 11:55:26;;;;;;;5.4;4;;;;;;;10.27;69.87988;941.5815;;;;
2021/11/17 11:57:53;;;;;;;5.1;3.7;;;;;;;10.42;68.73926;941.6312;;;;
2021/11/17 12:00:21;;;;;;;5.5;4;;;;;;;10.47;68.72363;941.6494;;;;
2021/11/17 12:02:46;;;;;;;5.2;3.7;;;;;;;10.39;69.32715;941.6686;;;;
2021/11/17 12:05:12;;;;;;;5.4;3.7;;;;;;;10.03;70.60352;941.6638;;;;
2021/11/17 12:07:36;;;;;;;5.1;3.8;;;;;;;9.47;71.87891;941.6164;;;;
2021/11/17 12:10:02;;;;;;;4.7;3.7;;;;;;;9.62;71.66504;941.6592;;;;
2021/11/17 12:12:28;;;;;;;4.3;3.5;;;;;;;9.66;71.61426;941.6161;;;;
2021/11/17 12:14:53;;;;;;;4.5;3.7;;;;;;;9.59;70.98828;941.6431;;;;
2021/11/17 12:17:23;;;;;;;5.9;3.5;;;;;;;9.69;71.01465;941.6127;;;;
2021/11/17 12:19:48;;;;;;;4.6;3.4;;;;;;;9.5;70.56348;941.5987;;;;
2021/11/17 12:22:16;;;;;;;3.4;2.9;;;;;;;9.35;71.32422;941.5845;;;;
2021/11/17 12:24:42;;;;;;;5;3.5;;;;;;;9.39;70.9541;941.5556;;;;
2021/11/17 12:27:08;;;;;;;4;2.9;;;;;;;9.43;71.31445;941.4734;;;;
2021/11/17 12:29:37;;;;;;;4;3.4;;;;;;;9.29;71.77051;941.5078;;;;
2021/11/17 12:32:03;;;;;;;4.8;3.5;;;;;;;9.35;71.74512;941.5589;;;;
2021/11/17 12:34:28;;;;;;;6.5;3.6;;;;;;;9.31;71.97852;941.5073;;;;
2021/11/17 12:36:56;;;;;;;5.4;3.5;;;;;;;9.23;72.93066;941.4914;;;;
2021/11/17 12:39:20;;;;;;;4.7;3.6;;;;;;;8.86;73.76855;941.5558;;;;
2021/11/17 12:41:44;;;;;;;6.2;3.7;;;;;;;9.18;73.46973;941.6054;;;;
2021/11/17 12:44:09;;;;;;;4.2;3.2;;;;;;;9.16;71.78223;941.5836;;;;
2021/11/17 12:46:35;;;;;;;5;3.3;;;;;;;9.2;72.85938;941.5852;;;;
2021/11/17 12:49:01;;;;;;;4.3;3.5;;;;;;;9.3;72.20313;941.5341;;;;
2021/11/17 12:51:27;;;;;;;4.6;3.4;;;;;;;9.34;72.33594;941.5119;;;;
2021/11/17 12:53:52;;;;;;;5.7;4;;;;;;;9.23;73.5459;941.5264;;;;
2021/11/17 12:56:17;;;;;;;6.8;4.1;;;;;;;9.21;74.59082;941.5524;;;;
2021/11/17 12:58:42;;;;;;;6.6;4.1;;;;;;;9.11;75.16602;941.6033;;;;
2021/11/17 13:01:07;;;;;;;6.9;4.6;;;;;;;8.94;75.63477;941.6439;;;;
2021/11/17 13:03:32;;;;;;;6.1;4.4;;;;;;;8.73;76.40527;941.6281;;;;
2021/11/17 13:06:05;;;;;;;7.2;4.9;;;;;;;8.56;77.69531;941.64;;;;
2021/11/17 13:08:30;;;;;;;5.9;4.4;;;;;;;8.58;77.69824;941.6127;;;;
2021/11/17 13:10:55;;;;;;;7.2;4.6;;;;;;;8.28;78.89258;941.5765;;;;
2021/11/17 13:13:20;;;;;;;5.3;4.1;;;;;;;8.28;79.60742;941.7067;;;;
2021/11/17 13:15:51;;;;;;;7;4.5;;;;;;;8.22;79.42773;941.7388;;;;
2021/11/17 13:18:16;;;;;;;6.9;4.6;;;;;;;8.21;79.49414;941.7933;;;;
2021/11/17 13:20:41;;;;;;;6.9;4.8;;;;;;;8.17;79.89453;941.8045;;;;
2021/11/17 13:23:12;;;;;;;6.5;4.5;;;;;;;7.97;83.6709;941.8644;;;;
2021/11/17 13:25:37;;;;;;;6.5;4.4;;;;;;;8.35;83.56348;941.9252;;;;
2021/11/17 13:28:03;;;;;;;7.4;4.4;;;;;;;8.47;80.25684;941.8887;;;;
2021/11/17 13:30:30;;;;;;;6.1;4.2;;;;;;;8.57;78.67285;941.867;;;;
2021/11/17 13:32:56;;;;;;;6.5;3.9;;;;;;;8.43;79.31836;941.9179;;;;
2021/11/17 13:35:25;;;;;;;6.2;4.2;;;;;;;8.32;79.50293;941.8831;;;;
2021/11/17 13:37:51;;;;;;;6;4.1;;;;;;;8.23;79.65625;941.9006;;;;
2021/11/17 13:40:17;;;;;;;6;4.4;;;;;;;7.95;81.52246;941.9267;;;;
2021/11/17 13:42:41;;;;;;;5.1;3.9;;;;;;;7.84;81.69336;942.0086;;;;
2021/11/17 13:45:10;;;;;;;6.2;4.1;;;;;;;7.94;81.97266;941.9573;;;;
2021/11/17 13:47:35;;;;;;;5.3;4;;;;;;;8.08;80.94629;941.9579;;;;
2021/11/17 13:50:03;;;;;;;6.1;4.5;;;;;;;8.14;80.55957;941.9989;;;;
2021/11/17 13:52:27;;;;;;;7;4.3;;;;;;;8.1;80.63184;942.025;;;;
2021/11/17 13:54:53;;;;;;;7.7;4.7;;;;;;;7.59;83.00781;942.0785;;;;
2021/11/17 13:57:18;;;;;;;6.4;4.8;;;;;;;7.66;83.0332;942.0623;;;;
2021/11/17 13:59:44;;;;;;;5.4;3.9;;;;;;;7.84;82.29492;942.0625;;;;
2021/11/17 14:02:09;;;;;;;7.2;4;;;;;;;7.88;81.9082;942.1017;;;;
2021/11/17 14:04:34;;;;;;;6.2;4;;;;;;;7.97;81.45605;942.0261;;;;
2021/11/17 14:07:00;;;;;;;6.1;3.9;;;;;;;7.92;80.99512;942.0584;;;;
2021/11/17 14:09:26;;;;;;;4.8;3.7;;;;;;;7.81;81.37012;942.0864;;;;
2021/11/17 14:11:51;;;;;;;6.8;4.4;;;;;;;7.86;80.97168;942.0701;;;;
2021/11/17 14:14:16;;;;;;;6;3.6;;;;;;;7.77;81.39746;942.0905;;;;
2021/11/17 14:16:42;;;;;;;5.1;4;;;;;;;7.77;81.72656;942.0137;;;;
2021/11/17 14:19:12;;;;;;;4.9;3.8;;;;;;;7.69;81.83594;942.0474;;;;
2021/11/17 14:21:44;;;;;;;5.3;3.7;;;;;;;7.69;81.91504;942.0965;;;;
2021/11/17 14:24:11;;;;;;;5.2;3.6;;;;;;;7.77;82.02148;942.1199;;;;
2021/11/17 14:26:36;;;;;;;6.3;3.9;;;;;;;7.66;82.46582;942.1384;;;;
2021/11/17 14:29:04;;;;;;;5.4;3.9;;;;;;;7.65;82.51953;942.1096;;;;
2021/11/17 14:31:30;;;;;;;6.4;4.2;;;;;;;7.68;81.86816;942.0756;;;;
2021/11/17 14:33:59;;;;;;;4.6;3.8;;;;;;;7.71;81.64844;942.0867;;;;
2021/11/17 14:36:24;;;;;;;6.3;3.9;;;;;;;7.62;82.27734;942.105;;;;
2021/11/17 14:38:46;;;;;;;5.3;3.7;;;;;;;7.63;81.91406;942.1037;;;;
2021/11/17 14:41:11;;;;;;;5.6;4;;;;;;;7.59;82.49707;942.134;;;;
2021/11/17 14:43:40;;;;;;;6.3;4.1;;;;;;;7.49;83.33984;942.0988;;;;
2021/11/17 14:46:04;;;;;;;5.2;4;;;;;;;7.41;83.96973;942.0539;;;;
2021/11/17 14:48:32;;;;;;;5.2;4.1;;;;;;;7.37;83.97461;942.1199;;;;
2021/11/17 14:50:56;;;;;;;5.5;3.9;;;;;;;7.31;84.59668;941.9962;;;;
2021/11/17 14:53:22;;;;;;;6.1;4;;;;;;;7.36;84.42578;942.0879;;;;
2021/11/17 14:55:47;;;;;;;7.4;4.1;;;;;;;7.43;83.54297;942.0814;;;;
2021/11/17 14:58:14;;;;;;;5.7;3.8;;;;;;;7.46;83.42383;942.1289;;;;
2021/11/17 15:00:40;;;;;;;8.3;4.7;;;;;;;7.44;83.52246;942.1591;;;;
2021/11/17 15:03:04;;;;;;;6.5;4.3;;;;;;;7.4;84.01367;942.1611;;;;
2021/11/17 15:05:32;;;;;;;6.9;4.6;;;;;;;7.35;84.24121;942.1912;;;;
2021/11/17 15:07:57;;;;;;;8.1;4.8;;;;;;;7.19;85.16309;942.1445;;;;
2021/11/17 15:10:26;;;;;;;6.3;4.3;;;;;;;7;86.17676;942.2347;;;;
2021/11/17 15:12:51;;;;;;;6.5;4.6;;;;;;;6.78;87.69531;942.2888;;;;
2021/11/17 15:15:26;;;;;;;5.5;4.1;;;;;;;6.67;88.61035;942.3756;;;;
2021/11/17 15:17:51;;;;;;;7.6;4.5;;;;;;;6.8;88.19629;942.397;;;;
2021/11/17 15:20:18;;;;;;;7.2;4.5;;;;;;;6.8;87.92676;942.4462;;;;
2021/11/17 15:22:43;;;;;;;5.7;4.3;;;;;;;6.83;88.01172;942.452;;;;
2021/11/17 15:25:12;;;;;;;7;4.7;;;;;;;6.81;88.23438;942.5369;;;;
2021/11/17 15:27:42;;;;;;;5.5;4;;;;;;;6.53;89.40918;942.539;;;;
2021/11/17 15:30:07;;;;;;;7.6;4.3;;;;;;;6.56;89.47168;942.6339;;;;
2021/11/17 15:32:32;;;;;;;7.3;4.2;;;;;;;6.56;89.38086;942.6844;;;;
2021/11/17 15:34:57;;;;;;;7;4.9;;;;;;;6.55;89.91113;942.7404;;;;
2021/11/17 15:37:25;;;;;;;6.8;4.6;;;;;;;6.47;90.35938;942.7633;;;;
2021/11/17 15:39:51;;;;;;;6.6;4.5;;;;;;;6.47;90.68555;942.7371;;;;
2021/11/17 15:42:16;;;;;;;7.6;4.4;;;;;;;6.44;90.67969;942.6934;;;;
2021/11/17 15:44:43;;;;;;;7;4.8;;;;;;;6.42;90.83496;942.87;;;;
2021/11/17 15:47:08;;;;;;;5.8;4.5;;;;;;;6.52;90.9668;942.8518;;;;
2021/11/17 15:49:35;;;;;;;6.9;5;;;;;;;6.62;90.54883;942.8847;;;;
2021/11/17 15:52:00;;;;;;;6.5;4.8;;;;;;;6.72;90.03809;942.9471;;;;
2021/11/17 15:54:28;;;;;;;6.3;4.4;;;;;;;6.74;89.99609;942.9888;;;;
2021/11/17 15:56:53;;;;;;;7.6;5.1;;;;;;;6.75;90.02051;943.0279;;;;
2021/11/17 15:59:20;;;;;;;7.4;4.8;;;;;;;6.79;89.89258;943.0631;;;;
2021/11/17 16:01:45;;;;;;;8.1;4.8;;;;;;;6.77;90.18066;943.0774;;;;
2021/11/17 16:04:12;;;;;;;6.3;4.5;;;;;;;6.78;90.46777;943.0603;;;;
2021/11/17 16:06:37;;;;;;;6.7;4.5;;;;;;;6.73;90.23242;943.1293;;;;
2021/11/17 16:09:02;;;;;;;6.9;4.6;;;;;;;6.69;90.6748;943.1431;;;;
2021/11/17 16:11:27;;;;;;;7.1;4.6;;;;;;;6.68;90.88867;943.1008;;;;
2021/11/17 16:13:54;;;;;;;6.1;4.4;;;;;;;6.65;91.0752;943.176;;;;
2021/11/17 16:16:26;;;;;;;6.4;4.5;;;;;;;6.63;91.15039;943.2252;;;;
2021/11/17 16:18:53;;;;;;;5.4;4;;;;;;;6.74;90.84473;943.2096;;;;
2021/11/17 16:21:17;;;;;;;6.2;4.4;;;;;;;6.79;90.62988;943.2058;;;;
2021/11/17 16:26:09;;;;;;;5.7;4.3;;;;;;;6.77;90.65625;943.3292;;;;
2021/11/17 16:28:37;;;;;;;7.2;4.5;;;;;;;6.68;90.99023;943.3248;;;;
2021/11/17 16:31:01;;;;;;;9.4;5;;;;;;;6.52;91.99805;943.4358;;;;
2021/11/17 16:33:28;;;;;;;5.2;4.2;;;;;;;6.28;93.51758;943.4651;;;;
2021/11/17 16:35:53;;;;;;;14.8;9.6;;;;;;;6.17;93.95703;943.4464;;;;
2021/11/17 16:38:20;;;;;;;8.7;6;;;;;;;6.37;93.71973;943.5579;;;;
2021/11/17 16:40:45;;;;;;;8.7;5.7;;;;;;;6.44;93.33789;943.5936;;;;
2021/11/17 16:43:11;;;;;;;6.9;5;;;;;;;6.48;93.41309;943.6802;;;;
2021/11/17 16:45:36;;;;;;;7.3;5.2;;;;;;;6.52;92.92578;943.6722;;;;
2021/11/17 16:48:03;;;;;;;9.1;6.2;;;;;;;6.34;93.74414;943.6121;;;;
2021/11/17 16:50:28;;;;;;;8.9;5.8;;;;;;;6.31;93.30859;943.6702;;;;
2021/11/17 16:52:55;;;;;;;8.9;6.2;;;;;;;6.31;93.16113;943.7019;;;;
2021/11/17 16:55:20;;;;;;;8.2;5.8;;;;;;;6.36;93.32031;943.7275;;;;
2021/11/17 16:57:48;;;;;;;8;5.7;;;;;;;6.3;93.24023;943.7603;;;;
2021/11/17 17:00:13;;;;;;;10.3;7.4;;;;;;;6.41;93.10352;943.8007;;;;
2021/11/17 17:02:40;;;;;;;9.5;7;;;;;;;6.42;93.30957;943.8689;;;;
2021/11/17 17:05:05;;;;;;;11;7.4;;;;;;;6.1;94.07715;943.901;;;;
2021/11/17 17:07:31;;;;;;;10.1;7.2;;;;;;;6.22;93.6748;943.9458;;;;
2021/11/17 17:09:56;;;;;;;16.2;9.5;;;;;;;6.21;93.58984;943.9428;;;;
2021/11/17 17:12:23;;;;;;;13.3;8.7;;;;;;;6.04;94.13281;944.0048;;;;
2021/11/17 17:14:46;;;;;;;14.2;8.6;;;;;;;6.13;94.10547;944.0283;;;;
2021/11/17 17:17:16;;;;;;;10;7;;;;;;;6.08;94.41016;944.1016;;;;
2021/11/17 17:19:41;;;;;;;11.4;7;;;;;;;6.23;93.74316;943.9958;;;;
2021/11/17 17:22:06;;;;;;;17.4;10.7;;;;;;;6.16;93.88672;943.9892;;;;
2021/11/17 17:24:34;;;;;;;18.4;12.1;;;;;;;6.04;94.1416;944.0758;;;;
2021/11/17 17:27:00;;;;;;;15.8;11;;;;;;;5.91;95.05176;944.0851;;;;
2021/11/17 17:29:28;;;;;;;13.4;9.3;;;;;;;5.91;95.15137;944.0708;;;;
2021/11/17 17:31:49;;;;;;;9.3;7.1;;;;;;;6.13;94.27441;944.1272;;;;
2021/11/17 17:34:16;;;;;;;8.7;6.6;;;;;;;6.07;94.10449;944.1519;;;;
2021/11/17 17:36:42;;;;;;;8.9;6.9;;;;;;;6;94.39355;944.1522;;;;
2021/11/17 17:39:10;;;;;;;7.5;5.9;;;;;;;6;93.93066;944.2647;;;;
2021/11/17 17:41:35;;;;;;;8.6;5.9;;;;;;;6.02;93.38086;944.249;;;;
2021/11/17 17:44:02;;;;;;;7.4;5.7;;;;;;;6.17;92.83594;944.2589;;;;
2021/11/17 17:46:27;;;;;;;9.8;6.3;;;;;;;6.12;92.63574;944.2772;;;;
2021/11/17 17:48:52;;;;;;;8.9;5.6;;;;;;;6.07;92.83887;944.2991;;;;
2021/11/17 17:51:20;;;;;;;9.4;6.6;;;;;;;6.16;92.33887;944.262;;;;
2021/11/17 17:53:47;;;;;;;8.6;6.1;;;;;;;6.24;91.91504;944.2946;;;;
2021/11/17 17:56:13;;;;;;;6.9;5.5;;;;;;;6.11;91.77344;944.3052;;;;
2021/11/17 17:58:38;;;;;;;8.4;5.8;;;;;;;6.02;92.60156;944.3256;;;;
2021/11/17 18:01:07;;;;;;;7.1;5.3;;;;;;;6.07;92.38672;944.3466;;;;